createdAt,value
2022-09-10T00:02:03.339Z,43.60
2022-09-10T00:04:52.011Z,43.55
2022-09-10T00:07:40.450Z,43.25
2022-09-10T00:10:28.863Z,43.60
2022-09-10T00:13:21.494Z,43.60
2022-09-10T00:16:12.198Z,43.25
2022-09-10T00:19:02.058Z,43.28
2022-09-10T00:21:51.508Z,43.49
2022-09-10T00:24:39.908Z,43.32
2022-09-10T00:27:29.601Z,43.64
2022-09-10T00:30:22.548Z,43.65
2022-09-10T00:33:11.547Z,43.60
2022-09-10T00:35:59.963Z,43.82
2022-09-10T00:38:48.543Z,43.54
2022-09-10T00:41:38.564Z,43.39
2022-09-10T00:45:02.902Z,43.52
2022-09-10T00:47:53.885Z,43.55
2022-09-10T00:50:43.963Z,43.52
2022-09-10T00:53:32.661Z,43.28
2022-09-10T00:56:21.386Z,43.75
2022-09-10T00:59:10.909Z,43.56
2022-09-10T01:02:00.166Z,43.45
2022-09-10T01:04:50.794Z,43.26
2022-09-10T01:07:40.292Z,43.40
2022-09-10T01:10:31.498Z,43.65
2022-09-10T01:13:27.119Z,43.64
2022-09-10T01:16:22.350Z,43.43
2022-09-10T01:19:24.345Z,43.67
2022-09-10T01:22:22.605Z,43.34
2022-09-10T01:25:20.628Z,43.36
2022-09-10T01:28:12.682Z,43.41
2022-09-10T01:31:06.259Z,43.71
2022-09-10T01:34:02.143Z,43.71
2022-09-10T01:36:51.974Z,43.70
2022-09-10T01:39:41.230Z,43.34
2022-09-10T01:42:31.634Z,43.44
2022-09-10T01:45:21.619Z,43.49
2022-09-10T01:48:29.172Z,43.50
2022-09-10T01:51:24.576Z,43.55
2022-09-10T01:54:25.354Z,43.34
2022-09-10T01:57:24.436Z,43.14
2022-09-10T02:00:15.104Z,43.41
2022-09-10T02:03:08.733Z,43.50
2022-09-10T02:05:57.982Z,43.49
2022-09-10T02:08:50.661Z,43.32
2022-09-10T02:11:47.318Z,43.27
2022-09-10T02:14:36.014Z,43.63
2022-09-10T02:17:26.754Z,43.32
2022-09-10T02:20:17.074Z,43.30
2022-09-10T02:23:07.320Z,43.25
2022-09-10T02:25:55.999Z,43.17
2022-09-10T02:28:45.272Z,43.36
2022-09-10T02:31:33.841Z,43.53
2022-09-10T02:34:22.349Z,43.34
2022-09-10T02:37:12.176Z,43.48
2022-09-10T02:40:01.081Z,43.35
2022-09-10T02:42:49.862Z,43.11
2022-09-10T02:45:41.076Z,43.15
2022-09-10T02:48:31.117Z,43.33
2022-09-10T02:51:19.752Z,43.50
2022-09-10T02:54:09.792Z,43.32
2022-09-10T02:57:00.201Z,43.38
2022-09-10T02:59:48.847Z,43.52
2022-09-10T03:02:37.784Z,43.31
2022-09-10T03:05:26.266Z,43.48
2022-09-10T03:08:14.801Z,43.14
2022-09-10T03:11:04.948Z,43.18
2022-09-10T03:13:55.800Z,43.00
2022-09-10T03:16:44.212Z,43.07
2022-09-10T03:19:32.709Z,43.11
2022-09-10T03:22:21.166Z,43.19
2022-09-10T03:25:09.808Z,43.04
2022-09-10T03:27:59.850Z,43.10
2022-09-10T03:30:48.243Z,42.96
2022-09-10T03:33:37.428Z,43.03
2022-09-10T03:36:29.352Z,43.21
2022-09-10T03:39:18.892Z,43.11
2022-09-10T03:42:07.527Z,43.13
2022-09-10T03:44:57.455Z,43.21
2022-09-10T03:47:46.071Z,43.49
2022-09-10T03:50:35.077Z,43.25
2022-09-10T03:53:23.882Z,43.21
2022-09-10T03:56:13.904Z,43.15
2022-09-10T03:59:02.474Z,43.12
2022-09-10T04:01:52.236Z,43.17
2022-09-10T04:04:41.002Z,42.88
2022-09-10T04:07:30.279Z,42.92
2022-09-10T04:10:20.363Z,43.01
2022-09-10T04:13:09.264Z,43.04
2022-09-10T04:15:58.213Z,43.16
2022-09-10T04:18:48.074Z,43.40
2022-09-10T04:21:36.561Z,43.00
2022-09-10T04:24:25.085Z,43.03
2022-09-10T04:27:14.807Z,43.40
2022-09-10T04:30:03.483Z,43.17
2022-09-10T04:32:54.762Z,43.25
2022-09-10T04:35:45.339Z,42.98
2022-09-10T04:38:34.875Z,42.91
2022-09-10T04:41:25.975Z,42.85
2022-09-10T04:44:14.579Z,43.07
2022-09-10T04:47:03.043Z,43.25
2022-09-10T04:49:51.482Z,43.33
2022-09-10T04:52:43.155Z,43.09
2022-09-10T04:55:31.916Z,43.01
2022-09-10T04:58:21.239Z,43.21
2022-09-10T05:01:09.764Z,43.24
2022-09-10T05:03:59.524Z,43.16
2022-09-10T05:06:50.365Z,43.21
2022-09-10T05:09:41.275Z,43.17
2022-09-10T05:12:29.665Z,42.93
2022-09-10T05:15:18.336Z,43.01
2022-09-10T05:18:07.611Z,43.03
2022-09-10T05:20:56.126Z,43.47
2022-09-10T05:23:45.088Z,42.96
2022-09-10T05:26:34.899Z,43.42
2022-09-10T05:29:23.367Z,43.21
2022-09-10T05:32:11.765Z,42.96
2022-09-10T05:35:00.208Z,42.86
2022-09-10T05:37:48.652Z,42.99
2022-09-10T05:40:37.308Z,43.40
2022-09-10T05:43:27.449Z,42.77
2022-09-10T05:46:15.859Z,43.26
2022-09-10T05:49:04.303Z,43.42
2022-09-10T05:51:52.823Z,43.26
2022-09-10T05:54:41.331Z,43.14
2022-09-10T05:57:31.149Z,43.37
2022-09-10T06:00:21.135Z,43.29
2022-09-10T06:03:10.302Z,43.41
2022-09-10T06:05:59.106Z,43.67
2022-09-10T06:08:52.277Z,43.59
2022-09-10T06:11:41.799Z,43.37
2022-09-10T06:14:31.103Z,43.27
2022-09-10T06:17:22.665Z,43.23
2022-09-10T06:20:15.658Z,43.33
2022-09-10T06:23:04.114Z,43.27
2022-09-10T06:26:02.012Z,43.41
2022-09-10T06:28:50.720Z,43.25
2022-09-10T06:31:39.133Z,43.17
2022-09-10T06:34:28.937Z,43.44
2022-09-10T06:37:18.600Z,43.39
2022-09-10T06:40:08.802Z,43.33
2022-09-10T06:42:57.210Z,43.45
2022-09-10T06:45:45.691Z,43.39
2022-09-10T06:48:39.414Z,43.47
2022-09-10T06:51:30.877Z,43.67
2022-09-10T06:54:19.836Z,43.47
2022-09-10T06:57:08.446Z,43.27
2022-09-10T06:59:56.886Z,43.43
2022-09-10T07:02:45.334Z,43.76
2022-09-10T07:05:34.199Z,43.17
2022-09-10T07:08:27.646Z,43.35
2022-09-10T07:11:17.556Z,43.67
2022-09-10T07:14:06.027Z,43.37
2022-09-10T07:16:55.550Z,43.34
2022-09-10T07:19:43.939Z,43.57
2022-09-10T07:22:33.028Z,43.34
2022-09-10T07:25:22.929Z,43.19
2022-09-10T07:28:15.221Z,43.44
2022-09-10T07:31:13.600Z,43.63
2022-09-10T07:34:03.083Z,43.59
2022-09-10T07:36:51.729Z,43.62
2022-09-10T07:39:40.212Z,43.60
2022-09-10T07:42:30.101Z,43.65
2022-09-10T07:45:19.683Z,43.42
2022-09-10T07:48:08.142Z,43.52
2022-09-10T07:51:03.407Z,43.82
2022-09-10T07:53:55.150Z,43.40
2022-09-10T07:56:43.500Z,43.52
2022-09-10T07:59:34.794Z,43.26
2022-09-10T08:02:25.765Z,43.89
2022-09-10T08:05:14.530Z,43.53
2022-09-10T08:08:03.336Z,43.71
2022-09-10T08:10:52.171Z,43.50
2022-09-10T08:13:43.009Z,43.61
2022-09-10T08:16:33.070Z,43.55
2022-09-10T08:19:21.519Z,43.44
2022-09-10T08:22:13.499Z,43.61
2022-09-10T08:25:02.310Z,43.77
2022-09-10T08:27:50.771Z,43.33
2022-09-10T08:30:39.662Z,43.77
2022-09-10T08:33:29.840Z,43.81
2022-09-10T08:36:18.869Z,43.89
2022-09-10T08:39:08.507Z,43.33
2022-09-10T08:41:59.307Z,43.56
2022-09-10T08:44:50.192Z,43.25
2022-09-10T08:47:48.247Z,43.80
2022-09-10T08:50:43.482Z,43.34
2022-09-10T08:53:34.970Z,43.75
2022-09-10T08:56:24.957Z,43.21
2022-09-10T08:59:20.289Z,43.45
2022-09-10T09:02:37.897Z,43.28
2022-09-10T09:05:28.214Z,43.64
2022-09-10T09:08:22.086Z,43.49
2022-09-10T09:11:15.090Z,43.53
2022-09-10T09:14:17.045Z,43.44
2022-09-10T09:17:18.939Z,43.66
2022-09-10T09:20:19.351Z,43.93
2022-09-10T09:23:21.396Z,43.38
2022-09-10T09:26:13.635Z,42.92
2022-09-10T09:29:05.383Z,39.83
2022-09-10T09:31:57.641Z,38.93
2022-09-10T09:34:50.494Z,38.96
2022-09-10T09:37:40.590Z,39.49
2022-09-10T09:40:36.800Z,39.69
2022-09-10T09:43:43.749Z,39.66
2022-09-10T09:46:32.853Z,40.07
2022-09-10T09:49:21.526Z,40.34
2022-09-10T09:52:20.699Z,40.24
2022-09-10T09:55:17.302Z,40.79
2022-09-10T09:58:36.143Z,41.27
2022-09-10T10:01:25.493Z,41.32
2022-09-10T10:04:21.569Z,41.56
2022-09-10T10:07:10.130Z,41.46
2022-09-10T10:10:01.066Z,41.32
2022-09-10T10:12:51.289Z,41.81
2022-09-10T10:15:42.797Z,41.93
2022-09-10T10:18:32.726Z,41.93
2022-09-10T10:21:24.400Z,41.51
2022-09-10T10:24:31.802Z,41.56
2022-09-10T10:27:30.004Z,41.56
2022-09-10T10:30:23.915Z,41.46
2022-09-10T10:33:21.113Z,41.85
2022-09-10T10:36:16.743Z,41.68
2022-09-10T10:39:08.931Z,41.63
2022-09-10T10:42:04.416Z,41.79
2022-09-10T10:45:06.371Z,41.49
2022-09-10T10:47:57.136Z,41.19
2022-09-10T10:50:53.206Z,41.17
2022-09-10T10:53:54.721Z,41.77
2022-09-10T10:56:44.490Z,41.44
2022-09-10T10:59:45.151Z,40.67
2022-09-10T11:02:40.028Z,41.20
2022-09-10T11:05:32.107Z,41.32
2022-09-10T11:08:27.165Z,41.37
2022-09-10T11:11:18.899Z,41.36
2022-09-10T11:14:16.248Z,41.63
2022-09-10T11:17:07.617Z,41.72
2022-09-10T11:20:26.714Z,41.63
2022-09-10T11:23:20.552Z,41.53
2022-09-10T11:26:14.541Z,41.98
2022-09-10T11:29:14.369Z,41.49
2022-09-10T11:32:06.406Z,40.64
2022-09-10T11:34:58.957Z,40.56
2022-09-10T11:37:52.975Z,39.98
2022-09-10T11:40:46.479Z,40.29
2022-09-10T11:43:41.263Z,40.96
2022-09-10T11:46:34.310Z,40.76
2022-09-10T11:49:26.400Z,40.59
2022-09-10T11:52:15.144Z,39.36
2022-09-10T11:55:08.393Z,38.50
2022-09-10T11:58:03.353Z,38.90
2022-09-10T12:01:05.625Z,38.88
2022-09-10T12:04:09.135Z,39.23
2022-09-10T12:07:04.302Z,39.12
2022-09-10T12:10:01.577Z,39.56
2022-09-10T12:12:51.263Z,39.09
2022-09-10T12:15:39.888Z,38.92
2022-09-10T12:18:38.712Z,38.88
2022-09-10T12:21:33.583Z,39.32
2022-09-10T12:24:30.935Z,39.22
2022-09-10T12:27:20.782Z,39.35
2022-09-10T12:30:39.370Z,38.40
2022-09-10T12:34:01.261Z,38.74
2022-09-10T12:37:22.557Z,38.39
2022-09-10T12:40:45.781Z,39.31
2022-09-10T12:43:55.945Z,40.02
2022-09-10T12:46:45.061Z,40.37
2022-09-10T12:49:33.753Z,40.27
2022-09-10T12:52:34.338Z,40.90
2022-09-10T12:55:29.103Z,41.72
2022-09-10T12:58:25.946Z,42.23
2022-09-10T13:01:21.605Z,42.39
2022-09-10T13:04:24.547Z,41.71
2022-09-10T13:07:23.556Z,40.00
2022-09-10T13:10:22.338Z,39.70
2022-09-10T13:13:32.879Z,39.15
2022-09-10T13:16:39.004Z,39.39
2022-09-10T13:19:54.398Z,39.27
2022-09-10T13:22:58.545Z,38.77
2022-09-10T13:25:48.991Z,38.97
2022-09-10T13:29:01.388Z,38.97
2022-09-10T13:31:58.397Z,39.29
2022-09-10T13:35:17.018Z,39.52
2022-09-10T13:38:22.648Z,40.13
2022-09-10T13:41:22.074Z,39.60
2022-09-10T13:44:21.210Z,39.22
2022-09-10T13:47:13.025Z,38.25
2022-09-10T13:50:03.003Z,37.45
2022-09-10T13:52:54.990Z,37.36
2022-09-10T13:55:53.539Z,38.03
2022-09-10T13:58:48.448Z,37.68
2022-09-10T14:01:54.864Z,37.62
2022-09-10T14:04:45.215Z,37.49
2022-09-10T14:07:34.879Z,38.39
2022-09-10T14:10:24.242Z,37.36
2022-09-10T14:13:12.751Z,37.78
2022-09-10T14:16:04.513Z,38.02
2022-09-10T14:18:58.604Z,38.17
2022-09-10T14:21:49.331Z,38.30
2022-09-10T14:24:50.325Z,38.80
2022-09-10T14:27:40.438Z,39.19
2022-09-10T14:30:30.793Z,39.51
2022-09-10T14:33:26.317Z,39.97
2022-09-10T14:36:17.250Z,40.27
2022-09-10T14:39:07.923Z,39.90
2022-09-10T14:42:22.986Z,40.28
2022-09-10T14:45:39.260Z,39.81
2022-09-10T14:48:36.997Z,39.87
2022-09-10T14:51:25.975Z,39.85
2022-09-10T14:54:14.910Z,40.23
2022-09-10T14:57:05.228Z,39.92
2022-09-10T14:59:57.235Z,40.31
2022-09-10T15:02:46.234Z,40.77
2022-09-10T15:05:36.074Z,40.31
2022-09-10T15:08:25.659Z,40.19
2022-09-10T15:11:16.237Z,40.48
2022-09-10T15:14:04.693Z,40.81
2022-09-10T15:16:54.062Z,41.14
2022-09-10T15:19:42.679Z,40.94
2022-09-10T15:22:32.705Z,40.74
2022-09-10T15:25:33.870Z,40.43
2022-09-10T15:28:24.604Z,39.74
2022-09-10T15:31:13.204Z,39.49
2022-09-10T15:34:02.916Z,39.11
2022-09-10T15:36:52.940Z,39.88
2022-09-10T15:39:42.686Z,39.68
2022-09-10T15:42:32.023Z,39.90
2022-09-10T15:45:20.427Z,39.34
2022-09-10T15:48:08.825Z,39.22
2022-09-10T15:50:57.230Z,39.50
2022-09-10T15:53:46.318Z,39.54
2022-09-10T15:56:36.691Z,39.48
2022-09-10T15:59:25.159Z,39.54
2022-09-10T16:02:13.914Z,40.00
2022-09-10T16:05:02.327Z,39.60
2022-09-10T16:07:50.695Z,39.00
2022-09-10T16:10:40.429Z,39.73
2022-09-10T16:13:30.179Z,40.61
2022-09-10T16:16:21.166Z,40.86
2022-09-10T16:19:10.561Z,41.60
2022-09-10T16:21:58.945Z,41.17
2022-09-10T16:24:47.395Z,41.87
2022-09-10T16:27:35.923Z,42.12
2022-09-10T16:30:26.274Z,41.31
2022-09-10T16:33:14.804Z,41.50
2022-09-10T16:36:05.661Z,40.82
2022-09-10T16:38:55.221Z,40.96
2022-09-10T16:41:45.211Z,40.50
2022-09-10T16:44:33.931Z,40.43
2022-09-10T16:47:23.759Z,40.49
2022-09-10T16:50:12.298Z,40.50
2022-09-10T16:53:02.597Z,40.45
2022-09-10T16:55:51.440Z,40.57
2022-09-10T16:58:41.304Z,40.24
2022-09-10T17:01:31.142Z,40.24
2022-09-10T17:04:28.208Z,40.06
2022-09-10T17:07:17.249Z,40.63
2022-09-10T17:10:06.332Z,40.44
2022-09-10T17:12:54.733Z,40.41
2022-09-10T17:15:43.325Z,40.95
2022-09-10T17:18:31.779Z,40.86
2022-09-10T17:21:23.080Z,39.44
2022-09-10T17:24:13.150Z,39.25
2022-09-10T17:27:02.580Z,38.82
2022-09-10T17:29:50.962Z,39.26
2022-09-10T17:32:40.157Z,39.89
2022-09-10T17:35:28.730Z,39.68
2022-09-10T17:38:18.563Z,39.44
2022-09-10T17:41:07.273Z,39.46
2022-09-10T17:43:55.763Z,39.12
2022-09-10T17:46:45.010Z,39.64
2022-09-10T17:49:33.445Z,39.75
2022-09-10T17:52:23.600Z,39.27
2022-09-10T17:55:14.853Z,39.70
2022-09-10T17:58:04.733Z,39.10
2022-09-10T18:01:02.069Z,39.18
2022-09-10T18:03:50.480Z,39.18
2022-09-10T18:06:38.946Z,39.58
2022-09-10T18:09:27.422Z,40.27
2022-09-10T18:12:17.157Z,40.65
2022-09-10T18:15:06.329Z,40.50
2022-09-10T18:17:55.177Z,40.53
2022-09-10T18:20:43.554Z,40.26
2022-09-10T18:23:31.939Z,40.50
2022-09-10T18:26:22.781Z,40.53
2022-09-10T18:29:14.394Z,40.75
2022-09-10T18:32:02.985Z,40.90
2022-09-10T18:34:51.399Z,40.85
2022-09-10T18:37:40.253Z,41.52
2022-09-10T18:40:28.628Z,41.17
2022-09-10T18:43:17.145Z,41.40
2022-09-10T18:46:09.991Z,41.17
2022-09-10T18:48:59.123Z,41.23
2022-09-10T18:51:48.153Z,40.79
2022-09-10T18:54:42.520Z,40.87
2022-09-10T18:57:34.826Z,41.53
2022-09-10T19:00:25.595Z,42.83
2022-09-10T19:03:15.394Z,42.19
2022-09-10T19:06:06.327Z,42.00
2022-09-10T19:08:57.446Z,41.87
2022-09-10T19:11:48.653Z,43.12
2022-09-10T19:14:37.947Z,42.95
2022-09-10T19:17:27.425Z,43.05
2022-09-10T19:20:17.477Z,43.35
2022-09-10T19:23:05.974Z,42.45
2022-09-10T19:25:56.226Z,42.54
2022-09-10T19:28:45.150Z,42.48
2022-09-10T19:31:35.709Z,42.30
2022-09-10T19:34:27.968Z,42.72
2022-09-10T19:37:18.201Z,42.27
2022-09-10T19:40:07.399Z,41.56
2022-09-10T19:42:55.837Z,41.84
2022-09-10T19:45:45.827Z,41.66
2022-09-10T19:48:35.377Z,42.21
2022-09-10T19:51:23.960Z,41.69
2022-09-10T19:54:14.445Z,41.76
2022-09-10T19:57:02.890Z,42.63
2022-09-10T19:59:51.330Z,42.62
2022-09-10T20:02:41.240Z,42.81
2022-09-10T20:05:29.841Z,43.09
2022-09-10T20:08:18.182Z,43.47
2022-09-10T20:11:10.602Z,43.49
2022-09-10T20:14:00.535Z,43.74
2022-09-10T20:16:49.044Z,43.86
2022-09-10T20:19:37.449Z,43.82
2022-09-10T20:22:25.811Z,43.42
2022-09-10T20:25:17.060Z,43.91
2022-09-10T20:28:07.089Z,43.51
2022-09-10T20:30:56.406Z,43.64
2022-09-10T20:33:45.246Z,43.72
2022-09-10T20:36:35.074Z,43.55
2022-09-10T20:39:25.139Z,43.01
2022-09-10T20:42:13.968Z,43.00
2022-09-10T20:45:03.749Z,43.08
2022-09-10T20:47:53.007Z,43.70
2022-09-10T20:50:41.516Z,43.21
2022-09-10T20:53:29.910Z,43.09
2022-09-10T20:56:20.156Z,43.33
2022-09-10T20:59:08.815Z,43.26
2022-09-10T21:01:58.547Z,43.16
2022-09-10T21:04:47.002Z,43.55
2022-09-10T21:07:35.667Z,43.39
2022-09-10T21:10:24.077Z,43.07
2022-09-10T21:13:12.620Z,43.09
2022-09-10T21:16:10.475Z,43.18
2022-09-10T21:19:01.424Z,43.10
2022-09-10T21:21:49.870Z,42.75
2022-09-10T21:24:39.698Z,43.02
2022-09-10T21:27:29.294Z,43.01
2022-09-10T21:30:17.905Z,43.12
2022-09-10T21:33:07.133Z,43.03
2022-09-10T21:36:02.807Z,43.45
2022-09-10T21:38:53.377Z,43.33
2022-09-10T21:41:43.986Z,43.54
2022-09-10T21:44:32.441Z,43.71
2022-09-10T21:47:20.973Z,43.44
2022-09-10T21:50:10.140Z,43.84
2022-09-10T21:52:59.895Z,43.57
2022-09-10T21:55:48.337Z,43.45
2022-09-10T21:58:38.398Z,43.58
2022-09-10T22:01:28.245Z,43.12
2022-09-10T22:04:22.169Z,43.23
2022-09-10T22:07:11.377Z,43.07
2022-09-10T22:10:01.159Z,43.29
2022-09-10T22:12:49.555Z,43.38
2022-09-10T22:15:40.347Z,43.50
2022-09-10T22:18:29.737Z,43.19
2022-09-10T22:21:19.394Z,42.83
2022-09-10T22:24:09.317Z,43.12
2022-09-10T22:26:59.329Z,42.83
2022-09-10T22:29:47.924Z,42.67
2022-09-10T22:32:36.621Z,42.53
2022-09-10T22:35:26.619Z,42.75
2022-09-10T22:38:19.148Z,42.54
2022-09-10T22:41:10.132Z,42.74
2022-09-10T22:44:00.185Z,42.46
2022-09-10T22:46:48.817Z,42.50
2022-09-10T22:49:37.402Z,42.46
2022-09-10T22:52:27.878Z,42.46
2022-09-10T22:55:16.585Z,43.14
2022-09-10T22:58:05.022Z,42.29
2022-09-10T23:00:54.870Z,42.60
2022-09-10T23:03:44.688Z,42.59
2022-09-10T23:06:34.299Z,42.67
2022-09-10T23:09:22.796Z,42.85
2022-09-10T23:12:11.278Z,42.95
2022-09-10T23:14:59.801Z,43.00
2022-09-10T23:17:49.661Z,42.79
2022-09-10T23:20:38.437Z,42.84
2022-09-10T23:23:27.557Z,43.06
2022-09-10T23:26:17.259Z,42.76
2022-09-10T23:29:06.057Z,42.90
2022-09-10T23:31:54.600Z,42.56
2022-09-10T23:34:44.646Z,43.22
2022-09-10T23:37:33.971Z,43.17
2022-09-10T23:40:27.918Z,43.24
2022-09-10T23:43:18.484Z,43.01
2022-09-10T23:46:07.461Z,43.03
2022-09-10T23:48:56.736Z,42.82
2022-09-10T23:51:49.053Z,42.96
2022-09-10T23:54:38.699Z,43.16
2022-09-10T23:57:27.150Z,42.83
